• Join FlightAware (Why Join?)
  • Login
  • US Flag 
11:46AM EDT


 

Airport Tracker/Info


-or-


 

Live Flight TrackerFlight Track Log ✈ UPS1122 ✈ 07-Jun-2014 ✈ KBDL - KALB

Flight Track Log - Related Links

Times and Time Zones

All times are in EDT time to prevent confusion due to time zone crossing. See the UPS1122 flight status page for this flight to view local times or setup timezone preferences in your user account.

Time Position Orientation Groundspeed Altitude Reporting Facility
EDT Latitude Longitude Course Direction KTS MPH feet Rate Location/Type
07:03AM 41.9461 -72.6997 315° West 155 178 1,600  Level Boston Center
07:03AM 41.9578 -72.7156 315° West 152 175 2,100 1,800 Climbing Boston Center
07:04AM 41.9942 -72.7719 311° West 213 245 4,200 2,220 Climbing Boston Center
07:05AM 42.0156 -72.7969 319° Northwest 214 246 5,400 3,300 Climbing Boston Center
07:05AM 42.0508 -72.8444 315° West 275 316 7,900 3,600 Climbing Boston Center
07:06AM 42.0708 -72.8742 312° West 267 307 9,100 2,100 Climbing Boston Center
07:06AM 42.1022 -72.9211 312° West 274 315 10,000 840 Climbing Boston Center
07:07AM 42.1236 -72.9486 316° Northwest 276 318 10,000  Level Boston Center
07:07AM 42.1597 -73.0000 313° West 299 344 10,000 60 Level Boston Center
07:08AM 42.1789 -73.0289 312° West 322 371 10,100 60 Climbing Boston Center
07:08AM 42.2269 -73.0964 314° West 327 376 10,100 -120 Level Boston Center
07:09AM 42.2453 -73.1192 317° Northwest 321 369 10,000  Descending Boston Center
07:09AM 42.2886 -73.1828 313° West 322 371 10,100  Climbing Boston Center
07:10AM 42.3050 -73.2072 312° West 321 369 10,000  Descending Boston Center
07:10AM 42.3447 -73.2761 308° West 321 369 10,100  Climbing Boston Center
07:11AM 42.3625 -73.3058 309° West 321 369 10,000 -300 Descending Boston Center
07:11AM 42.3958 -73.3622 309° West 281 323 9,800 -720 Descending Boston Center
07:12AM 42.4111 -73.3856 312° West 275 316 9,300 -1,800 Descending Boston Center
07:12AM 42.4453 -73.4453 308° West 259 298 8,000 -1,680 Descending Boston Center
07:13AM 42.4578 -73.4622 315° West 268 308 7,600 -1,740 Descending Boston Center
07:13AM 42.4936 -73.5219 309° West 267 307 6,300 -1,800 Descending Boston Center
07:14AM 42.5081 -73.5464 309° West 268 308 5,800 -1,680 Descending Boston Center
07:14AM 42.5378 -73.5975 308° West 258 297 4,600 -1,800 Descending Boston Center
07:15AM 42.5517 -73.6200 310° West 254 292 4,000 -1,740 Descending Boston Center
07:15AM 42.5803 -73.6700 308° West 246 283 2,900 -1,680 Descending Boston Center
07:16AM 42.5936 -73.6931 308° West 250 288 2,300 -900 Descending Boston Center
07:16AM 42.6136 -73.7450 298° West 225 259 2,000 -240 Descending Boston Center
07:17AM 42.6233 -73.7647 304° West 222 255 2,100  Climbing Boston Center
07:17AM 42.6406 -73.7978 305° West 148 170 2,000 -120 Descending Boston Center
07:18AM 42.6536 -73.8008 350° North 154 177 2,000 -540 Level Boston Center
07:18AM 42.6764 -73.8011 359° North 107 123 1,500 -720 Descending Boston Center
07:19AM 42.6886 -73.8019 357° North 120 138 1,300 -540 Descending Boston Center
07:20AM 42.7103 -73.8039 356° North 107 123 900 -600 Descending Boston Center
07:20AM 42.7189 -73.8031 North 115 132 700 -540 Descending Boston Center
07:21AM 42.7525 -73.8053 357° North 115 132 300 -420 Descending Boston Center
07:23AM 42.7491 -73.8020 North  Level Estimated